createdAt,value
2019-02-27T00:00:11.478Z,0.00
2019-02-27T00:01:10.485Z,0.00
2019-02-27T00:02:10.403Z,0.00
2019-02-27T00:03:10.326Z,0.00
2019-02-27T00:04:10.245Z,0.00
2019-02-27T00:05:10.168Z,0.00
2019-02-27T00:06:10.082Z,0.00
2019-02-27T00:07:09.999Z,0.00
2019-02-27T00:08:09.916Z,0.00
2019-02-27T00:09:09.837Z,0.00
2019-02-27T00:10:09.750Z,0.00
2019-02-27T00:11:09.945Z,0.00
2019-02-27T00:12:09.589Z,0.00
2019-02-27T00:13:09.558Z,0.00
2019-02-27T00:14:09.424Z,0.00
2019-02-27T00:15:09.341Z,0.00
2019-02-27T00:16:11.121Z,0.00
2019-02-27T00:17:09.194Z,0.00
2019-02-27T00:18:09.093Z,0.00
2019-02-27T00:19:09.019Z,0.00
2019-02-27T00:20:08.932Z,0.00
2019-02-27T00:21:10.987Z,0.00
2019-02-27T00:22:08.766Z,0.00
2019-02-27T00:23:08.678Z,0.00
2019-02-27T00:24:08.603Z,0.00
2019-02-27T00:25:08.522Z,0.00
2019-02-27T00:26:09.049Z,0.00
2019-02-27T00:27:08.355Z,0.00
2019-02-27T00:28:08.285Z,0.00
2019-02-27T00:29:08.192Z,0.00
2019-02-27T00:30:08.112Z,0.00
2019-02-27T00:31:11.142Z,0.00
2019-02-27T00:32:07.947Z,0.00
2019-02-27T00:33:07.865Z,0.00
2019-02-27T00:34:07.778Z,0.00
2019-02-27T00:35:07.701Z,0.00
2019-02-27T00:36:11.984Z,0.00
2019-02-27T00:37:07.538Z,0.00
2019-02-27T00:38:07.453Z,0.00
2019-02-27T00:39:07.372Z,0.00
2019-02-27T00:40:07.292Z,0.00
2019-02-27T00:41:07.234Z,0.00
2019-02-27T00:42:07.124Z,0.00
2019-02-27T00:43:07.044Z,0.00
2019-02-27T00:44:06.955Z,0.00
2019-02-27T00:45:07.635Z,0.00
2019-02-27T00:46:06.796Z,0.00
2019-02-27T00:47:06.719Z,0.00
2019-02-27T00:48:06.631Z,0.00
2019-02-27T00:49:06.548Z,0.00
2019-02-27T00:50:06.781Z,0.00
2019-02-27T00:51:06.381Z,0.00
2019-02-27T00:52:06.309Z,0.00
2019-02-27T00:53:06.217Z,0.00
2019-02-27T00:54:06.134Z,0.00
2019-02-27T00:55:06.053Z,0.00
2019-02-27T00:56:05.971Z,0.00
2019-02-27T00:57:05.890Z,0.00
2019-02-27T00:58:05.809Z,0.00
2019-02-27T00:59:05.723Z,0.00
2019-02-27T01:00:06.635Z,0.00
2019-02-27T01:01:05.572Z,0.00
2019-02-27T01:02:05.475Z,0.00
2019-02-27T01:03:05.394Z,0.00
2019-02-27T01:04:05.314Z,0.00
2019-02-27T01:05:06.199Z,0.00
2019-02-27T01:06:05.144Z,0.00
2019-02-27T01:07:05.068Z,0.00
2019-02-27T01:08:04.979Z,0.00
2019-02-27T01:09:06.391Z,0.00
2019-02-27T01:10:04.818Z,0.00
2019-02-27T01:11:04.736Z,0.00
2019-02-27T01:12:04.657Z,0.00
2019-02-27T01:13:04.572Z,0.00
2019-02-27T01:14:04.614Z,0.00
2019-02-27T01:15:04.406Z,0.00
2019-02-27T01:16:04.325Z,0.00
2019-02-27T01:17:04.259Z,0.00
2019-02-27T01:18:04.166Z,0.00
2019-02-27T01:19:04.789Z,0.00
2019-02-27T01:20:03.994Z,0.00
2019-02-27T01:21:03.911Z,0.00
2019-02-27T01:22:03.831Z,0.00
2019-02-27T01:23:03.746Z,0.00
2019-02-27T01:24:03.667Z,0.00
2019-02-27T01:25:03.586Z,0.00
2019-02-27T01:26:03.499Z,0.00
2019-02-27T01:27:04.617Z,0.00
2019-02-27T01:28:03.335Z,0.00
2019-02-27T01:29:03.259Z,0.00
2019-02-27T01:30:03.169Z,0.00
2019-02-27T01:31:03.085Z,0.00
2019-02-27T01:32:03.005Z,0.00
2019-02-27T01:33:04.231Z,0.00
2019-02-27T01:34:02.839Z,0.00
2019-02-27T01:35:02.759Z,0.00
2019-02-27T01:36:02.674Z,0.00
2019-02-27T01:37:02.618Z,0.00
2019-02-27T01:38:05.000Z,0.00
2019-02-27T01:39:02.423Z,0.00
2019-02-27T01:40:02.343Z,0.00
2019-02-27T01:41:02.260Z,0.00
2019-02-27T01:42:02.175Z,0.00
2019-02-27T01:43:05.538Z,0.00
2019-02-27T01:44:02.011Z,0.00
2019-02-27T01:45:01.931Z,0.00
2019-02-27T01:46:01.846Z,0.00
2019-02-27T01:47:02.914Z,0.00
2019-02-27T01:48:01.674Z,0.00
2019-02-27T01:49:01.597Z,0.00
2019-02-27T01:50:01.520Z,0.00
2019-02-27T01:51:01.434Z,0.00
2019-02-27T01:52:02.094Z,0.00
2019-02-27T01:53:01.267Z,0.00
2019-02-27T01:54:01.179Z,0.00
2019-02-27T01:55:01.101Z,0.00
2019-02-27T01:56:01.019Z,0.00
2019-02-27T01:57:02.867Z,0.00
2019-02-27T01:58:00.866Z,0.00
2019-02-27T01:59:00.766Z,0.00
2019-02-27T02:00:00.690Z,0.00
2019-02-27T02:01:00.602Z,0.00
2019-02-27T02:02:01.099Z,0.00
2019-02-27T02:03:00.435Z,0.00
2019-02-27T02:04:00.356Z,0.00
2019-02-27T02:05:00.271Z,0.00
2019-02-27T02:06:00.193Z,0.00
2019-02-27T02:07:00.103Z,0.00
2019-02-27T02:08:00.016Z,0.00
2019-02-27T02:08:59.938Z,0.00
2019-02-27T02:09:59.854Z,0.00
2019-02-27T02:11:01.416Z,0.00
2019-02-27T02:11:59.690Z,0.00
2019-02-27T02:12:59.605Z,0.00
2019-02-27T02:13:59.521Z,0.00
2019-02-27T02:14:59.443Z,0.00
2019-02-27T02:16:00.857Z,0.00
2019-02-27T02:16:59.274Z,0.00
2019-02-27T02:17:59.190Z,0.00
2019-02-27T02:18:59.105Z,0.00
2019-02-27T02:19:59.028Z,0.00
2019-02-27T02:21:01.667Z,0.00
2019-02-27T02:21:58.859Z,0.00
2019-02-27T02:22:58.770Z,0.00
2019-02-27T02:23:58.693Z,0.00
2019-02-27T02:24:58.610Z,0.00
2019-02-27T02:26:01.092Z,0.00
2019-02-27T02:26:58.443Z,0.00
2019-02-27T02:27:58.369Z,0.00
2019-02-27T02:28:58.276Z,0.00
2019-02-27T02:29:58.191Z,0.00
2019-02-27T02:30:58.106Z,0.00
2019-02-27T02:31:58.028Z,0.00
2019-02-27T02:32:57.946Z,0.00
2019-02-27T02:33:57.857Z,0.00
2019-02-27T02:34:57.778Z,0.00
2019-02-27T02:35:57.697Z,0.00
2019-02-27T02:37:01.419Z,0.00
2019-02-27T02:37:57.531Z,0.00
2019-02-27T02:38:57.444Z,0.00
2019-02-27T02:39:57.368Z,0.00
2019-02-27T02:40:57.279Z,0.00
2019-02-27T02:41:57.196Z,0.00
2019-02-27T02:43:02.119Z,0.00
2019-02-27T02:43:57.032Z,0.00
2019-02-27T02:44:57.666Z,0.00
2019-02-27T02:45:56.862Z,0.00
2019-02-27T02:46:56.781Z,0.00
2019-02-27T02:47:56.913Z,0.00
2019-02-27T02:48:56.634Z,0.00
2019-02-27T02:49:56.527Z,0.00
2019-02-27T02:50:56.445Z,0.00
2019-02-27T02:51:56.367Z,0.00
2019-02-27T02:52:56.281Z,0.00
2019-02-27T02:54:00.335Z,0.00
2019-02-27T02:54:56.117Z,0.00
2019-02-27T02:55:56.025Z,0.00
2019-02-27T02:57:00.188Z,0.00
2019-02-27T02:57:55.861Z,0.00
2019-02-27T02:58:55.776Z,0.00
2019-02-27T02:59:59.423Z,0.00
2019-02-27T03:00:55.683Z,0.00
2019-02-27T03:01:55.564Z,0.00
2019-02-27T03:02:57.465Z,0.00
2019-02-27T03:03:55.369Z,0.00
2019-02-27T03:04:55.278Z,0.00
2019-02-27T03:05:59.792Z,0.00
2019-02-27T03:06:55.115Z,0.00
2019-02-27T03:07:55.031Z,0.00
2019-02-27T03:08:56.226Z,0.00
2019-02-27T03:09:54.864Z,0.00
2019-02-27T03:10:54.780Z,0.00
2019-02-27T03:11:55.815Z,0.00
2019-02-27T03:12:54.614Z,0.00
2019-02-27T03:13:54.532Z,0.00
2019-02-27T03:14:54.619Z,0.00
2019-02-27T03:15:54.366Z,0.00
2019-02-27T03:16:54.283Z,0.00
2019-02-27T03:17:55.055Z,0.00
2019-02-27T03:18:54.113Z,0.00
2019-02-27T03:19:54.027Z,0.00
2019-02-27T03:20:53.946Z,0.00
2019-02-27T03:21:53.862Z,0.00
2019-02-27T03:22:53.779Z,0.00
2019-02-27T03:23:53.693Z,0.00
2019-02-27T03:24:53.612Z,0.00
2019-02-27T03:25:53.521Z,0.00
2019-02-27T03:26:53.437Z,0.00
2019-02-27T03:27:53.360Z,0.00
2019-02-27T03:28:53.275Z,0.00
2019-02-27T03:29:53.861Z,0.00
2019-02-27T03:30:53.110Z,0.00
2019-02-27T03:32:00.001Z,0.00
2019-02-27T03:32:52.943Z,0.00
2019-02-27T03:33:52.858Z,0.00
2019-02-27T03:34:52.773Z,0.00
2019-02-27T03:35:52.684Z,0.00
2019-02-27T03:36:52.600Z,0.00
2019-02-27T03:37:52.529Z,0.00
2019-02-27T03:38:55.913Z,0.00
2019-02-27T03:39:52.350Z,0.00
2019-02-27T03:40:52.278Z,0.00
2019-02-27T03:41:58.391Z,0.00
2019-02-27T03:42:52.101Z,0.00
2019-02-27T03:43:52.029Z,0.00
2019-02-27T03:44:55.772Z,0.00
2019-02-27T03:45:51.858Z,0.00
2019-02-27T03:46:51.775Z,0.00
2019-02-27T03:47:52.090Z,0.00
2019-02-27T03:48:51.597Z,0.00
2019-02-27T03:49:51.522Z,0.00
2019-02-27T03:50:51.434Z,0.00
2019-02-27T03:51:51.351Z,0.00
2019-02-27T03:52:51.269Z,0.00
2019-02-27T03:53:51.186Z,0.00
2019-02-27T03:54:56.952Z,0.00
2019-02-27T03:55:51.019Z,0.00
2019-02-27T03:56:50.935Z,0.00
2019-02-27T03:57:54.882Z,0.00
2019-02-27T03:58:50.762Z,0.00
2019-02-27T03:59:50.674Z,0.00
2019-02-27T04:00:53.730Z,0.00
2019-02-27T04:01:50.511Z,0.00
2019-02-27T04:02:50.431Z,0.00
2019-02-27T04:03:54.253Z,0.00
2019-02-27T04:04:50.260Z,0.00
2019-02-27T04:05:50.175Z,0.00
2019-02-27T04:06:52.985Z,0.00
2019-02-27T04:07:50.010Z,0.00
2019-02-27T04:08:49.936Z,0.00
2019-02-27T04:09:54.806Z,0.00
2019-02-27T04:10:49.758Z,0.00
2019-02-27T04:11:49.674Z,0.00
2019-02-27T04:12:51.648Z,0.00
2019-02-27T04:13:49.510Z,0.00
2019-02-27T04:14:49.428Z,0.00
2019-02-27T04:15:53.350Z,0.00
2019-02-27T04:16:49.256Z,0.00
2019-02-27T04:17:52.210Z,0.00
2019-02-27T04:18:49.099Z,0.00
2019-02-27T04:19:49.004Z,0.00
2019-02-27T04:20:50.708Z,0.00
2019-02-27T04:21:48.839Z,0.00
2019-02-27T04:22:48.750Z,0.00
2019-02-27T04:23:49.329Z,0.00
2019-02-27T04:24:48.592Z,0.00
2019-02-27T04:25:48.496Z,0.00
2019-02-27T04:26:48.418Z,0.00
2019-02-27T04:27:48.334Z,0.00
2019-02-27T04:28:48.248Z,0.00
2019-02-27T04:29:48.164Z,0.00
2019-02-27T04:30:51.122Z,0.00
2019-02-27T04:31:47.993Z,0.00
2019-02-27T04:32:48.919Z,0.00
2019-02-27T04:33:47.825Z,0.00
2019-02-27T04:34:47.749Z,0.00
2019-02-27T04:35:47.660Z,0.00
2019-02-27T04:36:47.811Z,0.00
2019-02-27T04:37:47.491Z,0.00
2019-02-27T04:38:47.410Z,0.00
2019-02-27T04:39:47.329Z,0.00
2019-02-27T04:40:47.242Z,0.00
2019-02-27T04:41:49.562Z,0.00
2019-02-27T04:42:47.068Z,0.00
2019-02-27T04:43:46.989Z,0.00
2019-02-27T04:44:46.900Z,0.00
2019-02-27T04:45:47.584Z,0.00
2019-02-27T04:46:46.737Z,0.00
2019-02-27T04:47:46.653Z,0.00
2019-02-27T04:48:46.568Z,0.00
2019-02-27T04:49:46.494Z,0.00
2019-02-27T04:50:46.414Z,0.00
2019-02-27T04:51:48.131Z,0.00
2019-02-27T04:52:46.233Z,0.00
2019-02-27T04:53:46.153Z,0.00
2019-02-27T04:54:46.066Z,0.00
2019-02-27T04:55:47.980Z,0.00
2019-02-27T04:56:45.898Z,0.00
2019-02-27T04:57:45.814Z,0.00
2019-02-27T04:58:45.730Z,0.00
2019-02-27T04:59:45.645Z,0.00
2019-02-27T05:00:45.561Z,0.00
2019-02-27T05:01:45.474Z,0.00
2019-02-27T05:02:45.395Z,0.00
2019-02-27T05:03:45.308Z,0.00
2019-02-27T05:04:45.244Z,0.00
2019-02-27T05:05:45.144Z,0.00
2019-02-27T05:06:47.275Z,0.00
2019-02-27T05:07:44.984Z,0.00
2019-02-27T05:08:44.894Z,0.00
2019-02-27T05:09:44.812Z,0.00
2019-02-27T05:10:44.720Z,0.00
2019-02-27T05:11:47.449Z,0.00
2019-02-27T05:12:47.838Z,0.00
2019-02-27T05:13:44.468Z,0.00
2019-02-27T05:14:44.384Z,0.00
2019-02-27T05:15:44.299Z,0.00
2019-02-27T05:16:46.999Z,0.00
2019-02-27T05:17:44.126Z,0.00
2019-02-27T05:18:44.045Z,0.00
2019-02-27T05:19:43.962Z,0.00
2019-02-27T05:20:45.689Z,0.00
2019-02-27T05:21:43.795Z,0.00
2019-02-27T05:22:43.714Z,0.00
2019-02-27T05:23:43.626Z,0.00
2019-02-27T05:24:43.550Z,0.00
2019-02-27T05:25:43.466Z,0.00
2019-02-27T05:26:43.378Z,0.00
2019-02-27T05:27:43.291Z,0.00
2019-02-27T05:28:43.219Z,0.00
2019-02-27T05:29:43.123Z,0.00
2019-02-27T05:30:45.323Z,0.00
2019-02-27T05:31:42.954Z,0.00
2019-02-27T05:32:42.871Z,0.00
2019-02-27T05:33:42.781Z,0.00
2019-02-27T05:34:42.701Z,0.00
2019-02-27T05:35:42.620Z,0.00
2019-02-27T05:36:42.532Z,0.00
2019-02-27T05:37:42.448Z,0.00
2019-02-27T05:38:43.622Z,0.00
2019-02-27T05:39:42.279Z,0.00
2019-02-27T05:40:42.199Z,0.00
2019-02-27T05:41:42.112Z,0.00
2019-02-27T05:42:42.021Z,4.00
2019-02-27T05:43:41.943Z,0.00
2019-02-27T05:44:41.861Z,0.00
2019-02-27T05:45:41.769Z,4.00
2019-02-27T05:46:41.687Z,0.00
2019-02-27T05:47:44.806Z,0.00
2019-02-27T05:48:41.519Z,4.00
2019-02-27T05:49:41.434Z,0.00
2019-02-27T05:50:41.360Z,4.00
2019-02-27T05:51:41.265Z,4.00
2019-02-27T05:52:41.186Z,4.00
2019-02-27T05:53:41.098Z,4.00
2019-02-27T05:54:41.032Z,4.00
2019-02-27T05:55:40.928Z,8.00
2019-02-27T05:56:40.852Z,8.00
2019-02-27T05:57:40.766Z,8.00
2019-02-27T05:58:40.680Z,8.00
2019-02-27T05:59:40.596Z,8.00
2019-02-27T06:00:40.513Z,8.00
2019-02-27T06:01:40.442Z,12.00
2019-02-27T06:02:41.893Z,12.00
2019-02-27T06:03:40.251Z,16.00
2019-02-27T06:04:40.173Z,20.00
2019-02-27T06:05:40.089Z,20.00
2019-02-27T06:06:40.000Z,24.00
2019-02-27T06:07:39.921Z,24.00
2019-02-27T06:08:39.837Z,28.00
2019-02-27T06:09:41.398Z,28.00
2019-02-27T06:10:39.669Z,28.00
2019-02-27T06:11:39.588Z,32.00
2019-02-27T06:12:40.746Z,36.00
2019-02-27T06:13:39.418Z,40.00
2019-02-27T06:14:39.332Z,44.00
2019-02-27T06:15:39.247Z,44.00
2019-02-27T06:16:40.859Z,48.00
2019-02-27T06:17:43.438Z,52.00
2019-02-27T06:18:38.993Z,56.00
2019-02-27T06:19:38.906Z,56.00
2019-02-27T06:20:41.592Z,60.00
2019-02-27T06:21:38.934Z,64.00
2019-02-27T06:22:38.658Z,64.00
2019-02-27T06:23:38.574Z,68.00
2019-02-27T06:24:38.493Z,68.00
2019-02-27T06:25:38.400Z,72.00
2019-02-27T06:26:38.318Z,68.00
2019-02-27T06:27:39.413Z,72.00
2019-02-27T06:28:38.152Z,84.00
2019-02-27T06:29:38.065Z,84.00
2019-02-27T06:30:37.982Z,88.00
2019-02-27T06:31:39.529Z,88.00
2019-02-27T06:32:37.815Z,92.00
2019-02-27T06:33:37.735Z,96.00
2019-02-27T06:34:37.647Z,100.00
2019-02-27T06:35:37.558Z,108.00
2019-02-27T06:36:42.031Z,108.00
2019-02-27T06:37:37.391Z,112.00
2019-02-27T06:38:37.306Z,116.00
2019-02-27T06:39:37.223Z,124.00
2019-02-27T06:40:37.135Z,128.00
2019-02-27T06:41:37.053Z,132.00
2019-02-27T06:42:36.970Z,132.00
2019-02-27T06:43:36.884Z,140.00
2019-02-27T06:44:39.325Z,140.00
2019-02-27T06:45:36.718Z,144.00
2019-02-27T06:46:36.631Z,152.00
2019-02-27T06:47:36.543Z,156.00
2019-02-27T06:48:36.459Z,160.00
2019-02-27T06:49:36.382Z,160.00
2019-02-27T06:50:36.297Z,168.00
2019-02-27T06:51:36.537Z,168.00
2019-02-27T06:52:36.127Z,176.00
2019-02-27T06:53:36.038Z,184.00
2019-02-27T06:54:37.768Z,192.00
2019-02-27T06:55:35.876Z,196.00
2019-02-27T06:56:35.788Z,204.00
2019-02-27T06:57:35.705Z,212.00
2019-02-27T06:58:35.622Z,228.00
2019-02-27T06:59:35.536Z,236.00
2019-02-27T07:00:36.726Z,244.00
2019-02-27T07:01:35.370Z,260.00
2019-02-27T07:02:35.285Z,272.00
2019-02-27T07:03:35.198Z,284.00
2019-02-27T07:04:36.433Z,296.00
2019-02-27T07:05:35.031Z,308.00
2019-02-27T07:06:36.869Z,316.00
2019-02-27T07:07:34.877Z,320.00
2019-02-27T07:08:37.852Z,328.00
2019-02-27T07:09:34.696Z,336.00
2019-02-27T07:10:34.608Z,340.00
2019-02-27T07:11:34.528Z,348.00
2019-02-27T07:12:34.436Z,356.00
2019-02-27T07:13:34.364Z,364.00
2019-02-27T07:14:36.515Z,372.00
2019-02-27T07:15:34.189Z,384.00
2019-02-27T07:16:34.105Z,396.00
2019-02-27T07:17:34.025Z,404.00
2019-02-27T07:18:33.935Z,416.00
2019-02-27T07:19:33.853Z,432.00
2019-02-27T07:20:33.763Z,440.00
2019-02-27T07:21:33.684Z,456.00
2019-02-27T07:22:33.598Z,476.00
2019-02-27T07:23:35.235Z,492.00
2019-02-27T07:24:33.803Z,512.00
2019-02-27T07:25:33.349Z,536.00
2019-02-27T07:26:33.263Z,560.00
2019-02-27T07:27:33.177Z,588.00
2019-02-27T07:28:33.102Z,616.00
2019-02-27T07:29:33.015Z,644.00
2019-02-27T07:30:32.930Z,676.00
2019-02-27T07:31:32.845Z,708.00
2019-02-27T07:32:32.755Z,744.00
2019-02-27T07:33:32.678Z,776.00
2019-02-27T07:34:32.591Z,800.00
2019-02-27T07:35:32.507Z,832.00
2019-02-27T07:36:32.428Z,860.00
2019-02-27T07:37:32.342Z,888.00
2019-02-27T07:38:32.258Z,916.00
2019-02-27T07:39:32.787Z,944.00
2019-02-27T07:40:32.095Z,972.00
2019-02-27T07:41:32.007Z,1000.00
2019-02-27T07:42:32.634Z,1020.00
2019-02-27T07:43:31.845Z,1048.00
2019-02-27T07:44:32.226Z,1072.00
2019-02-27T07:45:31.675Z,1104.00
2019-02-27T07:46:31.588Z,1144.00
2019-02-27T07:47:31.517Z,1176.00
2019-02-27T07:48:31.426Z,1204.00
2019-02-27T07:49:31.587Z,1236.00
2019-02-27T07:50:32.564Z,1264.00
2019-02-27T07:51:31.181Z,1304.00
2019-02-27T07:52:32.613Z,1332.00
2019-02-27T07:53:31.012Z,1368.00
2019-02-27T07:54:30.927Z,1400.00
2019-02-27T07:55:30.842Z,1428.00
2019-02-27T07:56:30.764Z,1456.00
2019-02-27T07:57:30.686Z,1492.00
2019-02-27T07:58:33.695Z,1520.00
2019-02-27T07:59:30.509Z,1544.00
2019-02-27T08:00:30.427Z,1580.00
2019-02-27T08:01:30.340Z,1604.00
2019-02-27T08:02:30.259Z,1632.00
2019-02-27T08:03:30.180Z,1660.00
2019-02-27T08:04:30.098Z,1684.00
2019-02-27T08:05:30.013Z,1716.00
2019-02-27T08:06:29.932Z,1744.00
2019-02-27T08:07:29.857Z,1772.00
2019-02-27T08:08:29.767Z,1800.00
2019-02-27T08:09:30.255Z,1828.00
2019-02-27T08:10:29.606Z,1852.00
2019-02-27T08:11:29.516Z,1876.00
2019-02-27T08:12:29.439Z,1900.00
2019-02-27T08:13:29.764Z,1924.00
2019-02-27T08:14:29.278Z,1944.00
2019-02-27T08:15:29.196Z,1972.00
2019-02-27T08:16:29.116Z,1992.00
2019-02-27T08:17:29.028Z,2008.00
2019-02-27T08:18:30.441Z,2028.00
2019-02-27T08:19:28.867Z,2048.00
2019-02-27T08:20:28.786Z,2076.00
2019-02-27T08:21:28.759Z,2096.00
2019-02-27T08:22:28.622Z,2116.00
2019-02-27T08:23:28.537Z,2136.00
2019-02-27T08:24:28.460Z,2156.00
2019-02-27T08:25:28.379Z,2180.00
2019-02-27T08:26:28.299Z,2196.00
2019-02-27T08:27:28.215Z,2216.00
2019-02-27T08:28:28.139Z,2240.00
2019-02-27T08:29:28.049Z,2252.00
2019-02-27T08:30:27.973Z,2272.00
2019-02-27T08:31:28.756Z,2288.00
2019-02-27T08:32:27.807Z,2312.00
2019-02-27T08:33:27.728Z,2328.00
2019-02-27T08:34:27.648Z,2348.00
2019-02-27T08:35:27.567Z,2368.00
2019-02-27T08:36:27.484Z,2388.00
2019-02-27T08:37:27.401Z,2412.00
2019-02-27T08:38:27.328Z,2436.00
2019-02-27T08:39:27.243Z,2456.00
2019-02-27T08:40:27.158Z,2472.00
2019-02-27T08:41:29.164Z,2492.00
2019-02-27T08:42:27.005Z,2508.00
2019-02-27T08:43:26.923Z,2524.00
2019-02-27T08:44:26.842Z,2536.00
2019-02-27T08:45:27.692Z,2556.00
2019-02-27T08:46:26.682Z,2572.00
2019-02-27T08:47:26.601Z,2588.00
2019-02-27T08:48:26.521Z,2608.00
2019-02-27T08:49:26.435Z,2620.00
2019-02-27T08:50:29.213Z,2632.00
2019-02-27T08:51:26.281Z,2648.00
2019-02-27T08:52:26.222Z,2668.00
2019-02-27T08:53:26.966Z,2684.00
2019-02-27T08:54:26.037Z,2704.00
2019-02-27T08:55:25.963Z,2720.00
2019-02-27T08:56:25.885Z,2736.00
2019-02-27T08:57:25.802Z,2748.00
2019-02-27T08:58:26.673Z,2756.00
2019-02-27T08:59:25.644Z,2752.00
2019-02-27T09:00:25.563Z,2756.00
2019-02-27T09:01:25.477Z,2748.00
2019-02-27T09:02:29.254Z,2736.00
2019-02-27T09:03:25.322Z,2752.00
2019-02-27T09:04:25.246Z,2752.00
2019-02-27T09:05:25.175Z,2764.00
2019-02-27T09:06:27.541Z,2764.00
2019-02-27T09:07:25.005Z,2848.00
2019-02-27T09:08:24.929Z,2836.00
2019-02-27T09:09:24.845Z,2876.00
2019-02-27T09:10:26.864Z,2904.00
2019-02-27T09:11:24.697Z,2920.00
2019-02-27T09:12:24.611Z,2936.00
2019-02-27T09:13:24.533Z,2960.00
2019-02-27T09:14:24.453Z,2980.00
2019-02-27T09:15:24.397Z,2992.00
2019-02-27T09:16:26.014Z,2948.00
2019-02-27T09:17:26.886Z,2912.00
2019-02-27T09:18:24.143Z,2944.00
2019-02-27T09:19:24.063Z,2956.00
2019-02-27T09:20:23.979Z,2964.00
2019-02-27T09:21:24.959Z,3024.00
2019-02-27T09:22:23.825Z,3012.00
2019-02-27T09:23:23.745Z,3032.00
2019-02-27T09:24:23.677Z,3040.00
2019-02-27T09:25:24.638Z,3080.00
2019-02-27T09:26:24.321Z,3080.00
2019-02-27T09:27:23.437Z,3108.00
2019-02-27T09:28:23.359Z,3116.00
2019-02-27T09:29:23.279Z,3128.00
2019-02-27T09:30:23.208Z,3128.00
2019-02-27T09:31:23.124Z,3148.00
2019-02-27T09:32:23.048Z,3160.00
2019-02-27T09:33:22.968Z,3160.00
2019-02-27T09:34:26.613Z,3172.00
2019-02-27T09:35:22.811Z,3180.00
2019-02-27T09:36:22.737Z,3184.00
2019-02-27T09:37:22.656Z,3192.00
2019-02-27T09:38:24.395Z,3192.00
2019-02-27T09:39:22.495Z,3200.00
2019-02-27T09:40:22.422Z,3216.00
2019-02-27T09:41:22.347Z,3228.00
2019-02-27T09:42:22.271Z,3240.00
2019-02-27T09:43:24.079Z,3252.00
2019-02-27T09:44:22.124Z,3260.00
2019-02-27T09:45:22.037Z,3272.00
2019-02-27T09:46:21.961Z,3276.00
2019-02-27T09:47:23.218Z,3284.00
2019-02-27T09:48:21.806Z,3304.00
2019-02-27T09:49:21.726Z,3316.00
2019-02-27T09:50:21.650Z,3344.00
2019-02-27T09:51:22.223Z,3356.00
2019-02-27T09:52:21.496Z,3364.00
2019-02-27T09:53:21.419Z,3340.00
2019-02-27T09:54:21.338Z,3352.00
2019-02-27T09:55:21.262Z,3356.00
2019-02-27T09:56:21.193Z,3404.00
2019-02-27T09:57:21.107Z,3440.00
2019-02-27T09:58:22.577Z,3488.00
2019-02-27T09:59:20.961Z,3528.00
2019-02-27T10:00:20.882Z,3560.00
2019-02-27T10:01:20.808Z,3580.00
2019-02-27T10:02:20.739Z,3604.00
2019-02-27T10:03:21.572Z,3632.00
2019-02-27T10:04:20.573Z,3684.00
2019-02-27T10:05:20.532Z,3720.00
2019-02-27T10:06:20.422Z,3736.00
2019-02-27T10:07:20.362Z,3760.00
2019-02-27T10:08:20.280Z,3792.00
2019-02-27T10:09:20.257Z,3832.00
2019-02-27T10:10:20.112Z,3872.00
2019-02-27T10:11:22.278Z,3944.00
2019-02-27T10:12:19.964Z,4000.00
2019-02-27T10:13:19.920Z,4060.00
2019-02-27T10:14:19.814Z,4132.00
2019-02-27T10:15:19.736Z,4176.00
2019-02-27T10:16:19.665Z,4160.00
2019-02-27T10:17:19.585Z,4104.00
2019-02-27T10:18:22.005Z,4032.00
2019-02-27T10:19:19.435Z,4004.00
2019-02-27T10:20:19.366Z,4068.00
2019-02-27T10:21:19.275Z,4500.00
2019-02-27T10:22:20.183Z,5448.00
2019-02-27T10:23:19.129Z,6416.00
2019-02-27T10:24:19.051Z,7208.00
2019-02-27T10:25:19.015Z,7564.00
2019-02-27T10:26:19.423Z,7416.00
2019-02-27T10:27:18.829Z,7492.00
2019-02-27T10:28:18.767Z,7380.00
2019-02-27T10:29:19.096Z,7364.00
2019-02-27T10:30:18.601Z,6944.00
2019-02-27T10:31:18.563Z,5864.00
2019-02-27T10:32:18.473Z,6212.00
2019-02-27T10:33:18.375Z,6512.00
2019-02-27T10:34:18.343Z,6536.00
2019-02-27T10:35:18.231Z,6440.00
2019-02-27T10:36:18.154Z,5000.00
2019-02-27T10:37:18.976Z,3824.00
2019-02-27T10:38:18.002Z,3640.00
2019-02-27T10:39:17.930Z,3544.00
2019-02-27T10:40:17.857Z,3472.00
2019-02-27T10:41:17.781Z,3432.00
2019-02-27T10:42:17.705Z,3420.00
2019-02-27T10:43:17.629Z,3412.00
2019-02-27T10:44:17.557Z,3404.00
2019-02-27T10:45:17.483Z,3408.00
2019-02-27T10:46:17.404Z,3400.00
2019-02-27T10:47:17.326Z,3400.00
2019-02-27T10:48:17.272Z,3396.00
2019-02-27T10:49:21.440Z,3380.00
2019-02-27T10:50:17.108Z,3376.00
2019-02-27T10:51:17.034Z,3364.00
2019-02-27T10:52:16.962Z,3352.00
2019-02-27T10:53:16.883Z,3344.00
2019-02-27T10:54:16.814Z,3344.00
2019-02-27T10:55:16.738Z,3344.00
2019-02-27T10:56:17.529Z,3340.00
2019-02-27T10:57:16.590Z,3340.00
2019-02-27T10:58:16.516Z,3332.00
2019-02-27T10:59:16.438Z,3320.00
2019-02-27T11:00:16.369Z,3320.00
2019-02-27T11:01:16.292Z,3320.00
2019-02-27T11:02:16.220Z,3312.00
2019-02-27T11:03:16.142Z,3304.00
2019-02-27T11:04:16.069Z,3300.00
2019-02-27T11:05:17.789Z,3292.00
2019-02-27T11:06:15.916Z,3288.00
2019-02-27T11:07:16.806Z,3288.00
2019-02-27T11:08:15.781Z,3292.00
2019-02-27T11:09:15.698Z,3296.00
2019-02-27T11:10:15.625Z,3300.00
2019-02-27T11:11:16.460Z,3288.00
2019-02-27T11:12:15.479Z,3284.00
2019-02-27T11:13:15.404Z,3276.00
2019-02-27T11:14:15.329Z,3276.00
2019-02-27T11:15:15.254Z,3272.00
2019-02-27T11:16:15.574Z,3260.00
2019-02-27T11:17:15.105Z,3252.00
2019-02-27T11:18:15.032Z,3248.00
2019-02-27T11:19:16.662Z,3244.00
2019-02-27T11:20:20.247Z,3248.00
2019-02-27T11:21:14.817Z,3232.00
2019-02-27T11:22:14.739Z,3224.00
2019-02-27T11:23:14.667Z,3208.00
2019-02-27T11:24:17.321Z,3196.00
2019-02-27T11:25:14.512Z,3184.00
2019-02-27T11:26:14.446Z,3176.00
2019-02-27T11:27:14.370Z,3140.00
2019-02-27T11:28:14.300Z,3112.00
2019-02-27T11:29:14.225Z,3128.00
2019-02-27T11:30:14.156Z,3116.00
2019-02-27T11:31:15.513Z,3112.00
2019-02-27T11:32:14.004Z,3104.00
2019-02-27T11:33:25.241Z,3100.00
2019-02-27T11:34:13.862Z,3092.00
2019-02-27T11:35:13.785Z,3084.00
2019-02-27T11:36:13.703Z,3080.00
2019-02-27T11:37:14.022Z,3068.00
2019-02-27T11:38:13.565Z,3048.00
2019-02-27T11:39:13.493Z,3040.00
2019-02-27T11:40:13.425Z,3020.00
2019-02-27T11:41:15.352Z,3020.00
2019-02-27T11:42:13.270Z,3016.00
2019-02-27T11:43:13.196Z,3016.00
2019-02-27T11:44:14.307Z,2996.00
2019-02-27T11:45:13.049Z,2996.00
2019-02-27T11:46:12.974Z,2992.00
2019-02-27T11:47:12.907Z,2992.00
2019-02-27T11:48:12.833Z,2992.00
2019-02-27T11:49:12.758Z,2988.00
2019-02-27T11:50:14.693Z,2984.00
2019-02-27T11:51:13.989Z,2980.00
2019-02-27T11:52:12.539Z,2964.00
2019-02-27T11:53:12.466Z,2952.00
2019-02-27T11:54:14.511Z,2940.00
2019-02-27T11:55:14.814Z,2916.00
2019-02-27T11:56:12.244Z,2904.00
2019-02-27T11:57:12.173Z,2892.00
2019-02-27T11:58:12.100Z,2888.00
2019-02-27T11:59:12.950Z,2884.00
2019-02-27T12:00:13.647Z,2888.00
2019-02-27T12:01:12.248Z,2868.00
2019-02-27T12:02:11.806Z,2868.00
2019-02-27T12:03:12.013Z,2848.00
2019-02-27T12:04:11.664Z,2832.00
2019-02-27T12:05:11.594Z,2840.00
2019-02-27T12:06:11.509Z,2852.00
2019-02-27T12:07:12.287Z,2832.00
2019-02-27T12:08:11.492Z,2820.00
2019-02-27T12:09:11.297Z,2820.00
2019-02-27T12:10:11.245Z,2812.00
2019-02-27T12:11:13.398Z,2808.00
2019-02-27T12:12:11.078Z,2792.00
2019-02-27T12:13:11.004Z,2788.00
2019-02-27T12:14:10.932Z,2764.00
2019-02-27T12:15:10.860Z,2752.00
2019-02-27T12:16:10.791Z,2748.00
2019-02-27T12:17:10.708Z,2752.00
2019-02-27T12:18:10.636Z,2728.00
2019-02-27T12:19:10.570Z,2716.00
2019-02-27T12:20:10.491Z,2708.00
2019-02-27T12:21:10.418Z,2704.00
2019-02-27T12:22:10.345Z,2692.00
2019-02-27T12:23:10.829Z,2688.00
2019-02-27T12:24:10.199Z,2680.00
2019-02-27T12:25:10.133Z,2664.00
2019-02-27T12:26:10.068Z,2672.00
2019-02-27T12:27:10.381Z,2668.00
2019-02-27T12:28:09.912Z,2660.00
2019-02-27T12:29:09.838Z,2648.00
2019-02-27T12:30:09.773Z,2640.00
2019-02-27T12:31:11.099Z,2636.00
2019-02-27T12:32:09.624Z,2628.00
2019-02-27T12:33:09.553Z,2620.00
2019-02-27T12:34:09.479Z,2616.00
2019-02-27T12:35:10.849Z,2604.00
2019-02-27T12:36:09.335Z,2612.00
2019-02-27T12:37:19.097Z,2604.00
2019-02-27T12:38:09.185Z,2600.00
2019-02-27T12:39:09.114Z,2592.00
2019-02-27T12:40:09.044Z,2588.00
2019-02-27T12:41:08.976Z,2580.00